createdAt,value
2023-04-03T00:02:14.242Z,101047.12
2023-04-03T00:04:43.416Z,101048.52
2023-04-03T00:07:15.718Z,101048.90
2023-04-03T00:09:45.046Z,101050.38
2023-04-03T00:12:13.773Z,101055.70
2023-04-03T00:14:42.941Z,101050.17
2023-04-03T00:17:14.090Z,101052.73
2023-04-03T00:19:43.116Z,101056.56
2023-04-03T00:22:13.084Z,101057.33
2023-04-03T00:24:42.493Z,101055.62
2023-04-03T00:27:13.944Z,101059.24
2023-04-03T00:29:43.136Z,101058.88
2023-04-03T00:32:16.437Z,101058.79
2023-04-03T00:34:45.489Z,101062.34
2023-04-03T00:37:14.932Z,101057.49
2023-04-03T00:39:45.172Z,101059.63
2023-04-03T00:42:14.812Z,101060.37
2023-04-03T00:45:20.239Z,101061.44
2023-04-03T00:47:49.631Z,101059.41
2023-04-03T00:50:18.877Z,101064.73
2023-04-03T00:52:49.573Z,101068.42
2023-04-03T00:55:19.001Z,101070.33
2023-04-03T00:57:50.233Z,101073.46
2023-04-03T01:00:24.177Z,101076.63
2023-04-03T01:02:54.128Z,101075.73
2023-04-03T01:05:23.695Z,101082.35
2023-04-03T01:07:53.971Z,101083.52
2023-04-03T01:10:23.833Z,101087.64
2023-04-03T01:12:53.424Z,101091.79
2023-04-03T01:15:24.976Z,101094.07
2023-04-03T01:17:56.841Z,101099.45
2023-04-03T01:21:01.955Z,101097.65
2023-04-03T01:23:44.545Z,101105.48
2023-04-03T01:26:15.983Z,101109.12
2023-04-03T01:28:45.360Z,101114.80
2023-04-03T01:31:23.450Z,101113.46
2023-04-03T01:33:53.032Z,101118.45
2023-04-03T01:36:25.712Z,101117.35
2023-04-03T01:38:57.488Z,101119.97
2023-04-03T01:41:27.297Z,101118.87
2023-04-03T01:44:00.106Z,101122.01
2023-04-03T01:46:29.849Z,101126.34
2023-04-03T01:49:00.918Z,101125.77
2023-04-03T01:51:29.891Z,101123.16
2023-04-03T01:53:58.894Z,101125.98
2023-04-03T01:56:27.875Z,101125.62
2023-04-03T01:58:57.888Z,101129.28
2023-04-03T02:01:27.372Z,101131.34
2023-04-03T02:03:59.074Z,101138.06
2023-04-03T02:06:29.315Z,101140.27
2023-04-03T02:08:58.570Z,101142.98
2023-04-03T02:11:27.564Z,101142.38
2023-04-03T02:13:57.576Z,101138.48
2023-04-03T02:16:27.004Z,101140.86
2023-04-03T02:18:58.304Z,101140.93
2023-04-03T02:21:27.180Z,101141.56
2023-04-03T02:23:56.875Z,101144.42
2023-04-03T02:26:27.165Z,101146.27
2023-04-03T02:28:55.924Z,101146.29
2023-04-03T02:31:25.795Z,101149.35
2023-04-03T02:33:55.867Z,101154.69
2023-04-03T02:36:27.545Z,101157.02
2023-04-03T02:38:59.371Z,101157.48
2023-04-03T02:41:34.231Z,101158.09
2023-04-03T02:44:06.465Z,101163.08
2023-04-03T02:46:35.740Z,101162.79
2023-04-03T02:49:06.218Z,101164.09
2023-04-03T02:51:35.025Z,101166.64
2023-04-03T02:54:04.377Z,101169.08
2023-04-03T02:56:35.329Z,101166.58
2023-04-03T02:59:04.273Z,101165.14
2023-04-03T03:01:33.415Z,101164.36
2023-04-03T03:04:02.352Z,101162.31
2023-04-03T03:06:31.334Z,101168.66
2023-04-03T03:09:00.677Z,101165.96
2023-04-03T03:11:29.286Z,101166.93
2023-04-03T03:13:59.089Z,101171.60
2023-04-03T03:16:29.080Z,101174.32
2023-04-03T03:19:00.682Z,101173.91
2023-04-03T03:21:29.733Z,101175.02
2023-04-03T03:23:58.717Z,101172.98
2023-04-03T03:26:27.443Z,101176.40
2023-04-03T03:28:58.214Z,101177.73
2023-04-03T03:31:27.286Z,101178.02
2023-04-03T03:33:56.533Z,101184.05
2023-04-03T03:36:26.897Z,101181.73
2023-04-03T03:38:56.675Z,101180.39
2023-04-03T03:41:26.777Z,101181.48
2023-04-03T03:43:55.926Z,101178.09
2023-04-03T03:46:25.752Z,101180.60
2023-04-03T03:48:56.007Z,101180.89
2023-04-03T03:51:24.912Z,101181.21
2023-04-03T03:53:57.305Z,101183.62
2023-04-03T03:56:27.081Z,101186.84
2023-04-03T03:58:56.692Z,101192.63
2023-04-03T04:01:26.260Z,101193.60
2023-04-03T04:03:55.961Z,101199.09
2023-04-03T04:06:29.154Z,101198.33
2023-04-03T04:09:00.407Z,101198.74
2023-04-03T04:11:29.384Z,101201.42
2023-04-03T04:14:00.192Z,101204.77
2023-04-03T04:16:30.715Z,101206.54
2023-04-03T04:19:01.347Z,101205.74
2023-04-03T04:21:30.956Z,101210.82
2023-04-03T04:24:00.170Z,101212.96
2023-04-03T04:26:28.784Z,101209.74
2023-04-03T04:28:58.902Z,101213.43
2023-04-03T04:31:28.061Z,101221.13
2023-04-03T04:33:58.320Z,101221.29
2023-04-03T04:36:27.395Z,101230.45
2023-04-03T04:38:58.937Z,101231.77
2023-04-03T04:41:28.649Z,101231.53
2023-04-03T04:43:58.673Z,101236.35
2023-04-03T04:46:29.558Z,101236.63
2023-04-03T04:48:59.923Z,101239.66
2023-04-03T04:51:35.119Z,101240.45
2023-04-03T04:54:11.662Z,101241.42
2023-04-03T04:56:41.302Z,101243.59
2023-04-03T04:59:12.955Z,101248.73
2023-04-03T05:01:42.403Z,101245.73
2023-04-03T05:04:17.192Z,101247.73
2023-04-03T05:06:50.041Z,101253.25
2023-04-03T05:09:22.877Z,101252.64
2023-04-03T05:11:52.246Z,101256.17
2023-04-03T05:14:24.373Z,101255.89
2023-04-03T05:16:54.480Z,101261.65
2023-04-03T05:19:24.919Z,101259.54
2023-04-03T05:21:55.225Z,101258.23
2023-04-03T05:24:24.123Z,101256.47
2023-04-03T05:26:52.714Z,101258.63
2023-04-03T05:29:24.682Z,101258.94
2023-04-03T05:31:53.667Z,101262.38
2023-04-03T05:34:22.516Z,101262.89
2023-04-03T05:36:52.461Z,101268.33
2023-04-03T05:39:23.544Z,101267.55
2023-04-03T05:41:53.096Z,101273.98
2023-04-03T05:44:24.114Z,101279.39
2023-04-03T05:46:53.261Z,101281.20
2023-04-03T05:49:21.965Z,101281.95
2023-04-03T05:51:51.858Z,101281.15
2023-04-03T05:54:30.427Z,101284.27
2023-04-03T05:57:14.677Z,101282.91
2023-04-03T05:59:44.035Z,101282.62
2023-04-03T06:02:17.645Z,101282.92
2023-04-03T06:04:49.373Z,101285.30
2023-04-03T06:07:21.450Z,101285.39
2023-04-03T06:10:16.202Z,101291.37
2023-04-03T06:12:48.315Z,101293.88
2023-04-03T06:15:17.686Z,101292.65
2023-04-03T06:17:46.287Z,101298.02
2023-04-03T06:20:15.707Z,101295.52
2023-04-03T06:22:46.001Z,101300.71
2023-04-03T06:25:15.018Z,101300.73
2023-04-03T06:27:43.874Z,101304.48
2023-04-03T06:30:14.567Z,101304.20
2023-04-03T06:32:43.883Z,101308.14
2023-04-03T06:35:15.109Z,101308.03
2023-04-03T06:37:44.191Z,101311.58
2023-04-03T06:40:21.677Z,101304.73
2023-04-03T06:42:51.016Z,101306.25
2023-04-03T06:45:22.144Z,101306.23
2023-04-03T06:47:51.207Z,101307.48
2023-04-03T06:50:21.555Z,101308.83
2023-04-03T06:52:51.280Z,101305.43
2023-04-03T06:55:20.726Z,101309.04
2023-04-03T06:57:49.788Z,101313.05
2023-04-03T07:00:20.915Z,101315.05
2023-04-03T07:02:49.649Z,101318.54
2023-04-03T07:05:19.118Z,101318.52
2023-04-03T07:07:47.928Z,101322.26
2023-04-03T07:10:17.023Z,101328.29
2023-04-03T07:12:45.958Z,101327.80
2023-04-03T07:15:15.052Z,101329.66
2023-04-03T07:17:44.498Z,101334.51
2023-04-03T07:20:15.971Z,101334.04
2023-04-03T07:22:45.550Z,101337.59
2023-04-03T07:25:14.535Z,101343.70
2023-04-03T07:27:43.522Z,101340.59
2023-04-03T07:30:15.048Z,101342.59
2023-04-03T07:32:44.103Z,101348.48
2023-04-03T07:35:14.745Z,101344.85
2023-04-03T07:37:43.660Z,101343.02
2023-04-03T07:40:15.726Z,101344.30
2023-04-03T07:42:44.289Z,101351.76
2023-04-03T07:45:15.436Z,101351.66
2023-04-03T07:47:44.437Z,101350.50
2023-04-03T07:50:15.064Z,101350.70
2023-04-03T07:52:43.715Z,101346.27
2023-04-03T07:55:16.326Z,101345.96
2023-04-03T07:57:45.580Z,101352.48
2023-04-03T08:00:18.009Z,101353.05
2023-04-03T08:02:50.773Z,101343.81
2023-04-03T08:05:21.904Z,101347.61
2023-04-03T08:07:50.891Z,101346.50
2023-04-03T08:10:19.866Z,101346.22
2023-04-03T08:12:49.615Z,101349.64
2023-04-03T08:15:18.903Z,101348.45
2023-04-03T08:17:47.626Z,101351.71
2023-04-03T08:20:17.842Z,101352.65
2023-04-03T08:22:46.711Z,101345.19
2023-04-03T08:25:17.816Z,101348.53
2023-04-03T08:27:46.669Z,101350.73
2023-04-03T08:30:16.537Z,101355.86
2023-04-03T08:32:46.394Z,101361.83
2023-04-03T08:35:15.210Z,101359.38
2023-04-03T08:37:44.036Z,101355.71
2023-04-03T08:40:17.398Z,101351.15
2023-04-03T08:42:59.702Z,101364.64
2023-04-03T08:45:43.968Z,101365.91
2023-04-03T08:48:16.951Z,101364.55
2023-04-03T08:50:52.920Z,101367.10
2023-04-03T08:53:27.704Z,101360.73
2023-04-03T08:55:58.527Z,101361.50
2023-04-03T08:58:30.306Z,101364.19
2023-04-03T09:01:03.156Z,101366.38
2023-04-03T09:03:33.944Z,101365.46
2023-04-03T09:06:07.045Z,101367.95
2023-04-03T09:08:41.981Z,101364.63
2023-04-03T09:11:21.424Z,101367.25
2023-04-03T09:13:58.614Z,101361.98
2023-04-03T09:16:44.342Z,101366.32
2023-04-03T09:19:25.486Z,101362.95
2023-04-03T09:21:57.263Z,101373.01
2023-04-03T09:24:28.615Z,101368.36
2023-04-03T09:27:04.019Z,101366.42
2023-04-03T09:29:35.965Z,101371.34
2023-04-03T09:32:22.242Z,101364.84
2023-04-03T09:34:53.561Z,101371.04
2023-04-03T09:37:41.994Z,101368.35
2023-04-03T09:40:34.702Z,101369.16
2023-04-03T09:43:20.592Z,101367.08
2023-04-03T09:45:51.119Z,101364.98
2023-04-03T09:48:23.779Z,101362.80
2023-04-03T09:51:01.735Z,101364.50
2023-04-03T09:53:35.846Z,101366.05
2023-04-03T09:56:22.128Z,101367.46
2023-04-03T09:59:04.122Z,101367.33
2023-04-03T10:01:35.425Z,101372.48
2023-04-03T10:04:08.279Z,101375.17
2023-04-03T10:06:43.762Z,101368.80
2023-04-03T10:09:30.838Z,101373.08
2023-04-03T10:12:06.056Z,101381.95
2023-04-03T10:14:38.157Z,101379.71
2023-04-03T10:17:20.236Z,101383.10
2023-04-03T10:19:55.243Z,101381.85
2023-04-03T10:22:32.983Z,101379.52
2023-04-03T10:25:16.158Z,101378.23
2023-04-03T10:27:55.673Z,101378.19
2023-04-03T10:30:41.070Z,101376.30
2023-04-03T10:33:37.717Z,101376.41
2023-04-03T10:36:18.743Z,101373.30
2023-04-03T10:38:58.571Z,101373.11
2023-04-03T10:41:41.023Z,101373.96
2023-04-03T10:44:22.226Z,101372.83
2023-04-03T10:46:57.070Z,101367.39
2023-04-03T10:49:42.559Z,101360.65
2023-04-03T10:52:19.119Z,101355.40
2023-04-03T10:54:56.754Z,101357.55
2023-04-03T10:57:26.361Z,101359.25
2023-04-03T11:00:00.163Z,101360.35
2023-04-03T11:02:32.698Z,101360.79
2023-04-03T11:05:09.695Z,101361.44
2023-04-03T11:07:46.599Z,101362.36
2023-04-03T11:10:24.074Z,101359.94
2023-04-03T11:12:58.681Z,101361.98
2023-04-03T11:15:33.535Z,101364.86
2023-04-03T11:18:08.664Z,101369.05
2023-04-03T11:20:46.295Z,101365.23
2023-04-03T11:23:23.249Z,101359.89
2023-04-03T11:25:55.242Z,101356.91
2023-04-03T11:28:24.706Z,101353.25
2023-04-03T11:31:03.721Z,101347.52
2023-04-03T11:33:45.386Z,101347.54
2023-04-03T11:36:30.250Z,101341.36
2023-04-03T11:39:17.650Z,101348.67
2023-04-03T11:41:47.907Z,101342.50
2023-04-03T11:44:37.965Z,101334.73
2023-04-03T11:47:08.732Z,101340.67
2023-04-03T11:49:58.601Z,101343.55
2023-04-03T11:53:02.474Z,101344.54
2023-04-03T11:55:52.756Z,101341.48
2023-04-03T11:58:23.296Z,101331.55
2023-04-03T12:01:08.011Z,101331.42
2023-04-03T12:04:04.933Z,101329.67
2023-04-03T12:06:59.538Z,101329.67
2023-04-03T12:09:36.233Z,101340.35
2023-04-03T12:12:25.089Z,101334.83
2023-04-03T12:14:54.237Z,101339.38
2023-04-03T12:17:29.747Z,101342.71
2023-04-03T12:19:58.665Z,101340.69
2023-04-03T12:22:28.614Z,101340.44
2023-04-03T12:24:57.296Z,101337.87
2023-04-03T12:27:33.709Z,101339.02
2023-04-03T12:30:14.310Z,101336.29
2023-04-03T12:33:05.673Z,101336.50
2023-04-03T12:35:45.479Z,101332.61
2023-04-03T12:38:33.844Z,101333.17
2023-04-03T12:41:21.582Z,101327.05
2023-04-03T12:44:05.242Z,101328.72
2023-04-03T12:46:41.373Z,101338.09
2023-04-03T12:49:27.709Z,101337.11
2023-04-03T12:51:57.910Z,101336.05
2023-04-03T12:54:33.331Z,101326.69
2023-04-03T12:57:13.560Z,101327.38
2023-04-03T12:59:44.230Z,101322.69
2023-04-03T13:02:25.762Z,101327.91
2023-04-03T13:05:01.667Z,101325.31
2023-04-03T13:07:33.907Z,101330.42
2023-04-03T13:10:15.019Z,101335.61
2023-04-03T13:12:49.778Z,101334.90
2023-04-03T13:15:21.079Z,101329.77
2023-04-03T13:17:53.261Z,101332.98
2023-04-03T13:20:27.329Z,101332.88
2023-04-03T13:23:00.885Z,101325.21
2023-04-03T13:25:32.497Z,101329.22
2023-04-03T13:28:13.350Z,101330.56
2023-04-03T13:31:00.047Z,101334.50
2023-04-03T13:33:33.381Z,101332.00
2023-04-03T13:36:07.948Z,101333.68
2023-04-03T13:38:36.926Z,101331.02
2023-04-03T13:41:23.961Z,101329.66
2023-04-03T13:43:57.551Z,101328.71
2023-04-03T13:46:29.120Z,101331.95
2023-04-03T13:49:19.156Z,101326.09
2023-04-03T13:51:54.156Z,101323.34
2023-04-03T13:54:38.578Z,101326.73
2023-04-03T13:57:17.038Z,101329.48
2023-04-03T13:59:46.357Z,101327.35
2023-04-03T14:02:20.677Z,101326.05
2023-04-03T14:04:56.887Z,101328.29
2023-04-03T14:07:27.858Z,101322.71
2023-04-03T14:09:58.557Z,101326.19
2023-04-03T14:12:32.686Z,101323.84
2023-04-03T14:15:03.873Z,101321.59
2023-04-03T14:17:32.966Z,101322.08
2023-04-03T14:20:02.075Z,101317.75
2023-04-03T14:22:35.504Z,101321.04
2023-04-03T14:25:05.782Z,101320.77
2023-04-03T14:27:42.364Z,101326.67
2023-04-03T14:30:17.973Z,101324.27
2023-04-03T14:32:47.936Z,101325.23
2023-04-03T14:35:17.589Z,101321.91
2023-04-03T14:37:48.384Z,101321.57
2023-04-03T14:40:20.072Z,101322.64
2023-04-03T14:42:49.304Z,101314.88
2023-04-03T14:45:19.293Z,101319.44
2023-04-03T14:47:52.166Z,101321.90
2023-04-03T14:50:24.574Z,101321.64
2023-04-03T14:52:58.395Z,101320.34
2023-04-03T14:55:28.165Z,101322.97
2023-04-03T14:57:57.161Z,101323.73
2023-04-03T15:00:26.208Z,101325.39
2023-04-03T15:02:56.232Z,101330.05
2023-04-03T15:05:25.682Z,101330.44
2023-04-03T15:07:57.992Z,101331.36
2023-04-03T15:10:29.112Z,101330.75
2023-04-03T15:12:58.787Z,101331.06
2023-04-03T15:15:31.059Z,101333.00
2023-04-03T15:18:00.985Z,101331.33
2023-04-03T15:20:31.641Z,101328.25
2023-04-03T15:23:02.202Z,101327.42
2023-04-03T15:25:36.012Z,101329.83
2023-04-03T15:28:09.872Z,101329.45
2023-04-03T15:30:42.399Z,101332.89
2023-04-03T15:33:11.196Z,101329.13
2023-04-03T15:35:42.564Z,101329.59
2023-04-03T15:38:14.296Z,101330.92
2023-04-03T15:40:44.604Z,101329.04
2023-04-03T15:43:14.327Z,101327.11
2023-04-03T15:45:43.911Z,101327.98
2023-04-03T15:48:13.857Z,101330.65
2023-04-03T15:50:43.139Z,101332.66
2023-04-03T15:53:13.679Z,101326.35
2023-04-03T15:55:42.871Z,101329.86
2023-04-03T15:58:14.298Z,101328.26
2023-04-03T16:00:44.803Z,101331.23
2023-04-03T16:03:19.951Z,101330.20
2023-04-03T16:05:50.172Z,101336.68
2023-04-03T16:08:19.622Z,101338.09
2023-04-03T16:10:48.745Z,101338.38
2023-04-03T16:13:17.768Z,101334.75
2023-04-03T16:15:50.860Z,101338.09
2023-04-03T16:18:20.044Z,101332.84
2023-04-03T16:20:51.231Z,101334.02
2023-04-03T16:23:21.347Z,101331.55
2023-04-03T16:25:50.744Z,101332.72
2023-04-03T16:28:20.927Z,101331.27
2023-04-03T16:30:50.855Z,101331.55
2023-04-03T16:33:21.959Z,101331.15
2023-04-03T16:35:52.556Z,101338.52
2023-04-03T16:38:22.647Z,101334.66
2023-04-03T16:40:57.397Z,101333.58
2023-04-03T16:43:26.586Z,101335.84
2023-04-03T16:45:55.786Z,101339.14
2023-04-03T16:48:24.762Z,101340.21
2023-04-03T16:50:58.549Z,101345.52
2023-04-03T16:53:27.984Z,101348.83
2023-04-03T16:56:00.296Z,101346.05
2023-04-03T16:58:29.437Z,101347.27
2023-04-03T17:00:58.470Z,101349.05
2023-04-03T17:03:28.510Z,101353.27
2023-04-03T17:05:58.077Z,101357.46
2023-04-03T17:08:27.026Z,101360.19
2023-04-03T17:10:57.180Z,101366.12
2023-04-03T17:13:32.829Z,101362.93
2023-04-03T17:16:06.688Z,101362.45
2023-04-03T17:18:36.376Z,101364.26
2023-04-03T17:21:07.086Z,101367.47
2023-04-03T17:23:37.642Z,101368.19
2023-04-03T17:26:06.839Z,101369.10
2023-04-03T17:28:36.411Z,101366.10
2023-04-03T17:31:06.024Z,101365.52
2023-04-03T17:33:35.209Z,101371.59
2023-04-03T17:36:08.636Z,101371.08
2023-04-03T17:38:37.947Z,101372.02
2023-04-03T17:41:08.860Z,101372.45
2023-04-03T17:43:37.775Z,101375.14
2023-04-03T17:46:09.313Z,101377.71
2023-04-03T17:48:41.236Z,101381.14
2023-04-03T17:51:12.134Z,101384.91
2023-04-03T17:53:43.857Z,101385.07
2023-04-03T17:56:15.828Z,101386.69
2023-04-03T17:58:45.698Z,101385.13
2023-04-03T18:01:17.538Z,101387.92
2023-04-03T18:03:48.558Z,101386.77
2023-04-03T18:06:19.989Z,101387.71
2023-04-03T18:08:55.567Z,101389.17
2023-04-03T18:11:35.294Z,101387.39
2023-04-03T18:14:07.584Z,101390.34
2023-04-03T18:16:36.346Z,101390.62
2023-04-03T18:19:21.799Z,101393.84
2023-04-03T18:21:52.469Z,101395.00
2023-04-03T18:24:23.829Z,101394.39
2023-04-03T18:26:58.895Z,101397.30
2023-04-03T18:29:32.530Z,101395.30
2023-04-03T18:32:04.266Z,101394.88
2023-04-03T18:34:34.006Z,101396.53
2023-04-03T18:37:05.501Z,101396.63
2023-04-03T18:39:34.787Z,101397.44
2023-04-03T18:42:10.178Z,101399.33
2023-04-03T18:44:41.239Z,101400.84
2023-04-03T18:47:10.348Z,101401.66
2023-04-03T18:49:41.904Z,101405.14
2023-04-03T18:52:11.704Z,101403.14
2023-04-03T18:54:46.543Z,101405.17
2023-04-03T18:57:17.175Z,101404.94
2023-04-03T18:59:47.300Z,101404.52
2023-04-03T19:02:24.337Z,101403.45
2023-04-03T19:04:58.908Z,101404.23
2023-04-03T19:07:35.407Z,101408.23
2023-04-03T19:10:18.580Z,101405.75
2023-04-03T19:12:52.333Z,101404.86
2023-04-03T19:15:24.218Z,101406.02
2023-04-03T19:17:57.238Z,101403.73
2023-04-03T19:20:33.214Z,101403.10
2023-04-03T19:23:08.802Z,101406.00
2023-04-03T19:25:39.310Z,101406.11
2023-04-03T19:28:10.630Z,101402.41
2023-04-03T19:30:42.982Z,101405.67
2023-04-03T19:33:16.506Z,101409.76
2023-04-03T19:35:49.362Z,101410.91
2023-04-03T19:38:27.100Z,101413.77
2023-04-03T19:41:07.725Z,101411.20
2023-04-03T19:43:51.818Z,101414.33
2023-04-03T19:46:27.807Z,101420.39
2023-04-03T19:49:02.064Z,101417.00
2023-04-03T19:51:33.290Z,101416.42
2023-04-03T19:54:01.946Z,101416.73
2023-04-03T19:56:34.496Z,101419.77
2023-04-03T19:59:04.631Z,101422.16
2023-04-03T20:01:35.289Z,101429.38
2023-04-03T20:04:06.157Z,101425.78
2023-04-03T20:06:42.858Z,101426.56
2023-04-03T20:09:11.781Z,101426.62
2023-04-03T20:11:42.690Z,101424.61
2023-04-03T20:14:11.890Z,101422.94
2023-04-03T20:16:42.925Z,101422.84
2023-04-03T20:19:11.918Z,101422.71
2023-04-03T20:21:43.300Z,101422.44
2023-04-03T20:24:15.609Z,101420.92
2023-04-03T20:26:46.581Z,101425.73
2023-04-03T20:29:17.192Z,101424.06
2023-04-03T20:31:46.881Z,101422.91
2023-04-03T20:34:17.833Z,101422.63
2023-04-03T20:38:38.925Z,101418.88
2023-04-03T20:39:37.840Z,101417.60
2023-04-03T20:42:11.859Z,101424.03
2023-04-03T20:44:45.592Z,101416.17
2023-04-03T20:47:15.656Z,101424.70
2023-04-03T20:49:45.079Z,101424.14
2023-04-03T20:52:15.038Z,101423.02
2023-04-03T20:54:43.660Z,101420.86
2023-04-03T20:57:15.292Z,101423.45
2023-04-03T20:59:44.606Z,101423.96
2023-04-03T21:02:15.900Z,101427.44
2023-04-03T21:04:48.699Z,101430.21
2023-04-03T21:07:53.926Z,101427.05
2023-04-03T21:10:58.887Z,101426.23
2023-04-03T21:14:04.945Z,101427.16
2023-04-03T21:16:32.190Z,101425.40
2023-04-03T21:19:15.076Z,101428.16
2023-04-03T21:21:46.956Z,101420.14
2023-04-03T21:24:17.869Z,101420.95
2023-04-03T21:26:46.716Z,101419.02
2023-04-03T21:29:16.627Z,101421.45
2023-04-03T21:31:51.950Z,101423.20
2023-04-03T21:34:21.798Z,101426.86
2023-04-03T21:36:52.405Z,101427.82
2023-04-03T21:39:22.531Z,101429.00
2023-04-03T21:41:51.879Z,101430.67
2023-04-03T21:44:21.922Z,101428.57
2023-04-03T21:46:53.761Z,101426.94
2023-04-03T21:49:23.345Z,101427.46
2023-04-03T21:51:53.737Z,101423.95
2023-04-03T21:54:22.418Z,101428.36
2023-04-03T21:56:52.039Z,101425.60
2023-04-03T21:59:20.691Z,101426.48
2023-04-03T22:01:49.756Z,101424.86
2023-04-03T22:04:19.452Z,101429.02
2023-04-03T22:06:56.050Z,101428.25
2023-04-03T22:09:25.209Z,101427.83
2023-04-03T22:11:55.062Z,101426.00
2023-04-03T22:14:23.708Z,101421.33
2023-04-03T22:16:52.793Z,101423.55
2023-04-03T22:19:21.889Z,101423.77
2023-04-03T22:21:50.976Z,101422.13
2023-04-03T22:24:21.213Z,101428.17
2023-04-03T22:26:52.650Z,101427.21
2023-04-03T22:29:21.456Z,101432.91
2023-04-03T22:31:50.532Z,101431.64
2023-04-03T22:34:20.314Z,101432.80
2023-04-03T22:36:48.960Z,101429.58
2023-04-03T22:39:18.850Z,101429.64
2023-04-03T22:41:50.000Z,101425.53
2023-04-03T22:44:19.344Z,101427.02
2023-04-03T22:46:47.983Z,101419.30
2023-04-03T22:49:16.708Z,101418.21
2023-04-03T22:51:46.057Z,101416.41
2023-04-03T22:54:16.382Z,101417.04
2023-04-03T22:56:45.194Z,101419.09
2023-04-03T22:59:16.508Z,101415.54
2023-04-03T23:01:45.179Z,101417.06
2023-04-03T23:04:15.909Z,101412.84
2023-04-03T23:06:44.548Z,101413.64
2023-04-03T23:09:15.810Z,101411.15
2023-04-03T23:11:44.376Z,101409.73
2023-04-03T23:14:17.865Z,101408.95
2023-04-03T23:16:46.596Z,101407.47
2023-04-03T23:19:16.267Z,101408.08
2023-04-03T23:21:46.163Z,101412.68
2023-04-03T23:24:16.119Z,101407.88
2023-04-03T23:26:44.679Z,101405.88
2023-04-03T23:29:15.362Z,101407.89
2023-04-03T23:31:47.362Z,101406.60
2023-04-03T23:34:16.501Z,101403.20
2023-04-03T23:36:45.088Z,101402.05
2023-04-03T23:39:19.362Z,101400.58
2023-04-03T23:41:49.104Z,101407.45
2023-04-03T23:44:18.942Z,101402.77
2023-04-03T23:46:47.718Z,101395.98
2023-04-03T23:49:16.685Z,101390.94
2023-04-03T23:51:45.607Z,101385.75
2023-04-03T23:54:14.878Z,101388.81
2023-04-03T23:56:44.081Z,101387.59
2023-04-03T23:59:14.601Z,101390.66
